Time;durP1;ratioP1;P1;durP2;ratioP2;P2;SDS_P1;SDS_P2;PMS_P1;PMS_P2;Temp;Humidity;BMP_temperature;BMP_pressure;BME280_temperature;BME280_humidity;BME280_pressure;Samples;Min_cycle;Max_cycle;Signal;HPM_P1;HPM_P2
2023/02/04 00:00:19;;;;;;;8.50;1.40;;;9.10;87.40;;;;;;6104905;23;20004;-79
2023/02/04 00:02:45;;;;;;;5.63;1.33;;;9.10;87.40;;;;;;6103735;23;20081;-79
2023/02/04 00:05:11;;;;;;;7.22;1.60;;;9.20;87.50;;;;;;6102797;23;20010;-78
2023/02/04 00:07:37;;;;;;;7.03;1.67;;;9.10;87.40;;;;;;6079199;23;20045;-79
2023/02/04 00:10:05;;;;;;;6.97;1.60;;;9.10;87.40;;;;;;6079404;23;20010;-79
2023/02/04 00:12:30;;;;;;;6.60;1.58;;;9.10;87.40;;;;;;6105079;23;20018;-79
2023/02/04 00:14:56;;;;;;;6.63;1.83;;;9.10;87.40;;;;;;6103333;23;20011;-80
2023/02/04 00:17:21;;;;;;;5.50;1.60;;;9.10;87.40;;;;;;6074966;23;20003;-78
2023/02/04 00:19:47;;;;;;;7.32;1.70;;;9.20;87.40;;;;;;6102587;23;19999;-78
2023/02/04 00:22:12;;;;;;;6.45;1.50;;;9.20;87.50;;;;;;6102376;23;20006;-78
2023/02/04 00:24:37;;;;;;;6.75;1.50;;;9.20;87.40;;;;;;6104108;23;20002;-79
2023/02/04 00:27:04;;;;;;;7.00;1.77;;;9.10;87.40;;;;;;6078860;23;20022;-78
2023/02/04 00:29:30;;;;;;;5.90;1.48;;;9.20;87.50;;;;;;6103063;23;20006;-79
2023/02/04 00:31:56;;;;;;;6.70;1.75;;;9.10;87.40;;;;;;6101791;23;20050;-79
2023/02/04 00:34:21;;;;;;;6.07;1.50;;;9.20;87.50;;;;;;6101099;23;20006;-79
2023/02/04 00:36:47;;;;;;;6.90;1.30;;;9.20;87.50;;;;;;6085517;23;20018;-79
2023/02/04 00:39:12;;;;;;;4.18;1.45;;;9.20;87.50;;;;;;6104033;23;20030;-80
2023/02/04 00:41:38;;;;;;;6.43;1.80;;;9.20;87.40;;;;;;6107609;23;20006;-80
2023/02/04 00:44:03;;;;;;;5.22;1.45;;;9.20;87.50;;;;;;6100289;23;20349;-79
2023/02/04 00:46:29;;;;;;;6.75;1.92;;;9.20;87.50;;;;;;6100709;23;20007;-79
2023/02/04 00:48:54;;;;;;;8.20;1.77;;;9.10;87.40;;;;;;6103109;23;20333;-79
2023/02/04 00:51:20;;;;;;;6.32;1.42;;;9.10;87.40;;;;;;6102668;23;20017;-79
2023/02/04 00:53:45;;;;;;;5.95;1.38;;;9.20;87.50;;;;;;6099727;23;20056;-79
2023/02/04 00:56:11;;;;;;;6.93;1.50;;;9.10;87.40;;;;;;6101399;23;20024;-79
2023/02/04 00:58:36;;;;;;;6.18;1.60;;;9.20;87.50;;;;;;6103966;23;20006;-79
2023/02/04 01:01:02;;;;;;;6.18;1.55;;;9.20;87.50;;;;;;6102380;23;20117;-79
2023/02/04 01:03:28;;;;;;;5.47;1.30;;;9.20;87.50;;;;;;6100140;23;20010;-78
2023/02/04 01:05:53;;;;;;;6.43;1.45;;;9.10;87.40;;;;;;6102379;23;20011;-78
2023/02/04 01:08:19;;;;;;;7.55;1.70;;;9.20;87.50;;;;;;6103363;23;20026;-78
2023/02/04 01:10:44;;;;;;;5.43;1.10;;;9.10;87.40;;;;;;6110327;23;20059;-80
2023/02/04 01:13:10;;;;;;;7.65;1.75;;;9.20;87.50;;;;;;6110435;23;20018;-79
2023/02/04 01:15:35;;;;;;;6.57;1.48;;;9.20;87.50;;;;;;6108708;23;20002;-80
2023/02/04 01:18:01;;;;;;;5.32;1.63;;;9.20;87.40;;;;;;6110545;23;20009;-80
2023/02/04 01:20:27;;;;;;;5.22;1.50;;;9.10;87.50;;;;;;6109839;23;20002;-79
2023/02/04 01:22:52;;;;;;;7.13;1.85;;;9.20;87.50;;;;;;6132213;23;20366;-80
2023/02/04 01:25:17;;;;;;;8.32;1.42;;;9.20;87.50;;;;;;6106305;23;20030;-79
2023/02/04 01:27:43;;;;;;;5.85;1.75;;;9.20;87.50;;;;;;6108448;23;20028;-80
2023/02/04 01:30:11;;;;;;;7.20;2.00;;;9.20;87.50;;;;;;6106372;23;20010;-79
2023/02/04 01:32:37;;;;;;;5.10;1.40;;;9.20;87.50;;;;;;6107442;23;20006;-79
2023/02/04 01:35:02;;;;;;;7.28;2.15;;;9.20;87.50;;;;;;6106768;23;20452;-78
2023/02/04 01:37:28;;;;;;;6.07;1.38;;;9.10;87.40;;;;;;6105320;23;20011;-80
2023/02/04 01:39:53;;;;;;;5.25;1.50;;;9.10;87.40;;;;;;6106508;23;19998;-79
2023/02/04 01:42:19;;;;;;;7.32;1.80;;;9.20;87.50;;;;;;6104692;23;20010;-79
2023/02/04 01:44:45;;;;;;;7.30;2.15;;;9.10;87.40;;;;;;6108591;23;20033;-79
2023/02/04 01:47:11;;;;;;;6.32;1.80;;;9.20;87.50;;;;;;6106735;23;20010;-79
2023/02/04 01:49:36;;;;;;;5.55;1.40;;;9.20;87.50;;;;;;6111079;23;20010;-78
2023/02/04 01:52:03;;;;;;;8.98;1.75;;;9.20;87.50;;;;;;6104226;23;20007;-79
2023/02/04 01:54:28;;;;;;;6.15;1.45;;;9.20;87.40;;;;;;6102810;23;20010;-79
2023/02/04 01:56:54;;;;;;;6.28;1.60;;;9.20;87.50;;;;;;6105549;23;20025;-80
2023/02/04 01:59:20;;;;;;;6.57;1.50;;;9.20;87.50;;;;;;6111036;23;20209;-81
2023/02/04 02:01:48;;;;;;;6.43;1.75;;;9.20;87.50;;;;;;6108920;23;20348;-80
2023/02/04 02:04:30;;;;;;;4.43;1.40;;;9.20;87.50;;;;;;6108927;23;20018;-79
2023/02/04 02:06:59;;;;;;;7.88;2.20;;;9.20;87.50;;;;;;6108067;23;20013;-79
2023/02/04 02:09:26;;;;;;;6.38;1.35;;;9.10;87.40;;;;;;6107750;23;20014;-79
2023/02/04 02:11:52;;;;;;;5.43;1.40;;;9.20;87.50;;;;;;6109037;23;20025;-80
2023/02/04 02:14:17;;;;;;;4.35;1.65;;;9.20;87.50;;;;;;6106126;23;20003;-79
2023/02/04 02:16:43;;;;;;;7.18;1.80;;;9.20;87.50;;;;;;6106027;23;19999;-79
2023/02/04 02:19:13;;;;;;;7.25;1.60;;;9.20;87.50;;;;;;6106182;23;20066;-79
2023/02/04 02:21:45;;;;;;;3.90;1.10;;;9.20;87.50;;;;;;6107966;23;20421;-78
2023/02/04 02:24:28;;;;;;;7.32;1.70;;;9.20;87.50;;;;;;6105130;23;20385;-79
2023/02/04 02:26:56;;;;;;;6.28;2.00;;;9.20;87.50;;;;;;6111884;23;20081;-79
2023/02/04 02:29:22;;;;;;;5.45;1.45;;;9.20;87.50;;;;;;6107766;23;20028;-79
2023/02/04 02:31:49;;;;;;;6.90;1.60;;;9.20;87.50;;;;;;6105143;23;20002;-79
2023/02/04 02:34:14;;;;;;;8.07;1.70;;;9.20;87.50;;;;;;6103645;23;20070;-78
2023/02/04 02:36:40;;;;;;;7.72;1.52;;;9.20;87.50;;;;;;6105347;23;20041;-80
2023/02/04 02:39:06;;;;;;;5.10;1.35;;;9.20;87.50;;;;;;6078763;23;20018;-79
2023/02/04 02:41:32;;;;;;;6.93;1.65;;;9.20;87.50;;;;;;6078385;23;20111;-81
2023/02/04 02:43:57;;;;;;;5.15;1.13;;;9.20;87.50;;;;;;6078221;23;20011;-79
2023/02/04 02:46:23;;;;;;;5.45;1.20;;;9.20;87.50;;;;;;6101766;23;20010;-80
2023/02/04 02:48:48;;;;;;;5.32;1.50;;;9.10;87.50;;;;;;6104438;23;20138;-79
2023/02/04 02:51:14;;;;;;;6.18;1.30;;;9.20;87.50;;;;;;6078337;23;20037;-80
2023/02/04 02:53:39;;;;;;;6.18;1.50;;;9.20;87.50;;;;;;6077491;23;20062;-80
2023/02/04 02:56:05;;;;;;;7.63;1.55;;;9.20;87.50;;;;;;6101230;23;20007;-80
2023/02/04 02:58:33;;;;;;;4.68;1.40;;;9.20;87.50;;;;;;6102189;23;20006;-80
2023/02/04 03:01:03;;;;;;;6.50;1.48;;;9.20;87.50;;;;;;6102333;23;20026;-80
2023/02/04 03:03:32;;;;;;;5.15;1.50;;;9.20;87.50;;;;;;6102898;23;20060;-80
2023/02/04 03:06:07;;;;;;;5.90;1.70;;;9.20;87.50;;;;;;6076596;23;20006;-80
2023/02/04 03:08:32;;;;;;;5.53;1.45;;;9.20;87.50;;;;;;6111666;23;20010;-81
2023/02/04 03:10:58;;;;;;;5.85;1.33;;;9.20;87.50;;;;;;6104222;23;20010;-80
2023/02/04 03:13:24;;;;;;;4.38;1.27;;;9.20;87.50;;;;;;6100527;23;20014;-79
2023/02/04 03:15:50;;;;;;;5.50;1.67;;;9.10;87.50;;;;;;6100133;23;20009;-81
2023/02/04 03:18:18;;;;;;;7.57;1.40;;;9.10;87.50;;;;;;6102405;23;19999;-80
2023/02/04 03:20:44;;;;;;;6.28;1.67;;;9.20;87.50;;;;;;6100941;23;20003;-80
2023/02/04 03:23:10;;;;;;;6.47;1.40;;;9.20;87.50;;;;;;6101913;23;20010;-80
2023/02/04 03:25:35;;;;;;;4.65;1.10;;;9.20;87.50;;;;;;6107849;23;20012;-79
2023/02/04 03:28:01;;;;;;;6.90;1.95;;;9.20;87.50;;;;;;6101448;23;20034;-80
2023/02/04 03:30:26;;;;;;;6.28;1.30;;;9.20;87.50;;;;;;6074506;23;20061;-79
2023/02/04 03:32:56;;;;;;;6.25;1.48;;;9.20;87.50;;;;;;6076631;23;20006;-79
2023/02/04 03:35:21;;;;;;;5.00;1.38;;;9.20;87.60;;;;;;6073004;23;20006;-80
2023/02/04 03:37:47;;;;;;;7.82;1.77;;;9.20;87.50;;;;;;6090564;23;20002;-79
2023/02/04 03:40:13;;;;;;;5.97;1.42;;;9.20;87.50;;;;;;6098619;23;20056;-79
2023/02/04 03:42:38;;;;;;;5.18;1.38;;;9.20;87.50;;;;;;6105272;23;20011;-80
2023/02/04 03:45:04;;;;;;;5.68;1.40;;;9.20;87.50;;;;;;6101174;23;20337;-77
2023/02/04 03:47:30;;;;;;;6.47;1.67;;;9.10;87.50;;;;;;6098100;23;20006;-80
2023/02/04 03:49:55;;;;;;;4.65;1.60;;;9.20;87.50;;;;;;6097055;23;20449;-81
2023/02/04 03:52:21;;;;;;;4.97;1.48;;;9.20;87.50;;;;;;6096633;23;20010;-80
2023/02/04 03:54:46;;;;;;;7.38;1.55;;;9.20;87.60;;;;;;6098901;23;20078;-80
2023/02/04 03:57:12;;;;;;;5.93;1.50;;;9.20;87.50;;;;;;6100325;23;20052;-79
2023/02/04 03:59:38;;;;;;;6.80;1.40;;;9.20;87.50;;;;;;6100867;23;20007;-79
2023/02/04 04:02:03;;;;;;;4.72;1.30;;;9.20;87.50;;;;;;6104466;23;20002;-79
2023/02/04 04:04:29;;;;;;;6.05;1.38;;;9.20;87.50;;;;;;6106838;23;20007;-79
2023/02/04 04:06:55;;;;;;;3.70;1.10;;;9.20;87.50;;;;;;6099118;23;20564;-80
2023/02/04 04:09:20;;;;;;;4.60;1.20;;;9.20;87.50;;;;;;6099373;23;20468;-80
2023/02/04 04:11:46;;;;;;;5.63;1.40;;;9.20;87.50;;;;;;6100217;23;20003;-80
2023/02/04 04:14:11;;;;;;;5.80;1.50;;;9.20;87.60;;;;;;6100022;23;20021;-80
2023/02/04 04:16:37;;;;;;;5.32;1.38;;;9.20;87.60;;;;;;6101486;23;20449;-80
2023/02/04 04:19:02;;;;;;;5.22;1.10;;;9.20;88.00;;;;;;6100316;23;20010;-81
2023/02/04 04:21:28;;;;;;;5.28;1.27;;;9.20;87.50;;;;;;6099135;23;20030;-80
2023/02/04 04:23:53;;;;;;;5.65;1.50;;;9.20;87.60;;;;;;6108506;23;20002;-81
2023/02/04 04:26:19;;;;;;;4.63;1.20;;;9.20;87.50;;;;;;6107616;23;20033;-81
2023/02/04 04:28:44;;;;;;;5.13;1.20;;;9.20;87.50;;;;;;6107485;23;19999;-79
2023/02/04 04:31:10;;;;;;;4.43;1.40;;;9.20;87.60;;;;;;6110701;23;20058;-81
2023/02/04 04:33:35;;;;;;;5.15;1.38;;;9.20;87.50;;;;;;6109175;23;20019;-81
2023/02/04 04:36:01;;;;;;;6.32;1.42;;;9.20;87.50;;;;;;6109184;23;20010;-81
2023/02/04 04:38:26;;;;;;;5.95;1.42;;;9.20;87.60;;;;;;6109608;23;20452;-80
2023/02/04 04:40:52;;;;;;;4.68;1.40;;;9.20;87.50;;;;;;6110258;23;20071;-80
2023/02/04 04:43:18;;;;;;;5.13;1.48;;;9.10;87.50;;;;;;6109944;23;19999;-80
2023/02/04 04:45:43;;;;;;;4.70;1.35;;;9.20;87.50;;;;;;6107206;23;20441;-80
2023/02/04 04:48:09;;;;;;;5.28;1.20;;;9.20;87.50;;;;;;6109106;23;20433;-82
2023/02/04 04:50:34;;;;;;;5.68;1.65;;;9.20;87.50;;;;;;6106698;23;20014;-80
2023/02/04 04:53:00;;;;;;;4.55;1.08;;;9.20;87.50;;;;;;6104669;23;20021;-79
2023/02/04 04:55:25;;;;;;;5.20;1.42;;;9.20;87.50;;;;;;6093232;23;20002;-78
2023/02/04 04:57:51;;;;;;;4.50;1.20;;;9.20;87.50;;;;;;6090318;23;20002;-80
2023/02/04 05:00:19;;;;;;;3.53;1.20;;;9.20;87.50;;;;;;6098571;23;20341;-80
2023/02/04 05:02:45;;;;;;;5.32;1.20;;;9.20;87.50;;;;;;6095191;23;20006;-81
2023/02/04 05:05:11;;;;;;;3.83;1.05;;;9.20;87.50;;;;;;6096975;23;20051;-80
2023/02/04 05:07:37;;;;;;;4.43;1.17;;;9.20;87.50;;;;;;6097500;23;20033;-80
2023/02/04 05:10:05;;;;;;;5.10;1.25;;;9.20;87.50;;;;;;6098935;23;20454;-82
2023/02/04 05:12:31;;;;;;;4.32;1.10;;;9.20;87.50;;;;;;6099121;23;20014;-80
2023/02/04 05:14:56;;;;;;;4.82;1.30;;;9.20;87.50;;;;;;6100174;23;20011;-79
2023/02/04 05:17:22;;;;;;;4.80;1.08;;;9.20;87.50;;;;;;6093344;23;20042;-81
2023/02/04 05:19:47;;;;;;;4.10;1.10;;;9.20;87.50;;;;;;6106877;23;20026;-82
2023/02/04 05:22:13;;;;;;;5.13;1.20;;;9.20;87.70;;;;;;6106083;23;20012;-82
2023/02/04 05:24:38;;;;;;;5.97;1.48;;;9.20;87.60;;;;;;6091958;23;20014;-81
2023/02/04 05:27:04;;;;;;;5.03;1.20;;;9.20;87.60;;;;;;6103305;23;20008;-81
2023/02/04 05:29:30;;;;;;;4.72;1.40;;;9.20;87.60;;;;;;6103513;23;20011;-81
2023/02/04 05:31:55;;;;;;;4.00;1.30;;;9.20;87.70;;;;;;6100888;23;20006;-81
2023/02/04 05:34:21;;;;;;;4.72;1.08;;;9.20;87.50;;;;;;6100695;23;20022;-82
2023/02/04 05:36:46;;;;;;;5.47;1.00;;;9.20;87.50;;;;;;6100983;23;20025;-79
2023/02/04 05:39:11;;;;;;;5.40;1.52;;;9.20;87.50;;;;;;6074702;23;20060;-82
2023/02/04 05:41:38;;;;;;;5.05;1.50;;;9.20;87.60;;;;;;6069439;23;20377;-75
2023/02/04 05:44:04;;;;;;;5.15;1.33;;;9.20;87.50;;;;;;6082564;23;20445;-76
2023/02/04 05:46:31;;;;;;;5.50;1.50;;;9.20;87.50;;;;;;6084475;23;20010;-76
2023/02/04 05:48:56;;;;;;;3.92;1.15;;;9.20;87.40;;;;;;6059082;23;20022;-76
2023/02/04 05:51:22;;;;;;;4.15;1.20;;;9.20;87.40;;;;;;6085027;23;20292;-78
2023/02/04 05:53:47;;;;;;;4.97;1.48;;;9.20;87.40;;;;;;6066018;23;20007;-76
2023/02/04 05:56:12;;;;;;;5.30;1.20;;;9.20;87.40;;;;;;6092413;23;20003;-80
2023/02/04 05:58:38;;;;;;;4.72;1.30;;;9.20;87.20;;;;;;6069907;23;20002;-78
2023/02/04 06:01:04;;;;;;;3.92;1.30;;;9.20;87.10;;;;;;6069900;23;20539;-79
2023/02/04 06:03:30;;;;;;;4.43;1.40;;;9.20;87.10;;;;;;6068758;23;20006;-77
2023/02/04 06:05:56;;;;;;;4.97;1.40;;;9.20;87.00;;;;;;6087838;23;20018;-78
2023/02/04 06:08:22;;;;;;;5.00;1.65;;;9.20;87.00;;;;;;6084915;23;20032;-76
2023/02/04 06:10:47;;;;;;;4.80;1.27;;;9.20;87.10;;;;;;6086788;23;20002;-78
2023/02/04 06:13:13;;;;;;;3.45;1.20;;;9.20;87.10;;;;;;6084898;23;21700;-76
2023/02/04 06:15:38;;;;;;;5.10;1.50;;;9.20;87.10;;;;;;6084842;23;20013;-77
2023/02/04 06:18:04;;;;;;;5.40;1.30;;;9.20;87.20;;;;;;6058870;23;20057;-76
2023/02/04 06:20:29;;;;;;;4.43;1.40;;;9.20;87.10;;;;;;6085124;23;20007;-76
2023/02/04 06:22:55;;;;;;;4.13;1.23;;;9.20;87.00;;;;;;6087455;23;20034;-76
2023/02/04 06:25:20;;;;;;;4.30;1.40;;;9.20;87.00;;;;;;6064837;23;20014;-78
2023/02/04 06:27:46;;;;;;;5.05;1.15;;;9.20;87.00;;;;;;6086992;23;20532;-78
2023/02/04 06:30:12;;;;;;;5.07;1.30;;;9.20;87.00;;;;;;6086728;23;20010;-77
2023/02/04 06:32:38;;;;;;;4.97;1.45;;;9.20;87.00;;;;;;6061392;23;20038;-78
2023/02/04 06:35:04;;;;;;;5.53;1.70;;;9.20;87.00;;;;;;6085895;23;20345;-78
2023/02/04 06:37:29;;;;;;;4.45;1.30;;;9.20;87.00;;;;;;6099021;23;20022;-78
2023/02/04 06:39:56;;;;;;;7.57;1.73;;;9.20;87.00;;;;;;6086239;23;20084;-80
2023/02/04 06:42:22;;;;;;;4.55;1.48;;;9.20;87.10;;;;;;6088025;23;20345;-77
2023/02/04 06:44:48;;;;;;;4.05;1.10;;;9.20;87.10;;;;;;6086040;23;20007;-78
2023/02/04 06:47:13;;;;;;;3.58;1.27;;;9.20;87.10;;;;;;6088830;23;20070;-77
2023/02/04 06:49:39;;;;;;;4.80;1.33;;;9.20;87.10;;;;;;6087687;23;20007;-77
2023/02/04 06:52:04;;;;;;;4.65;1.40;;;9.20;87.10;;;;;;6085678;23;20060;-77
2023/02/04 06:54:30;;;;;;;4.35;1.55;;;9.20;87.10;;;;;;6085365;23;20096;-78
2023/02/04 06:57:02;;;;;;;5.22;1.38;;;9.20;87.20;;;;;;6086895;23;20080;-76
2023/02/04 06:59:31;;;;;;;6.50;1.42;;;9.20;87.10;;;;;;6086085;23;20002;-76
2023/02/04 07:01:56;;;;;;;3.08;1.10;;;9.20;87.20;;;;;;6086099;23;20025;-77
2023/02/04 07:04:22;;;;;;;4.25;1.30;;;9.20;87.10;;;;;;6085715;23;20014;-77
2023/02/04 07:06:47;;;;;;;4.78;1.50;;;9.20;87.20;;;;;;6087299;23;20449;-77
2023/02/04 07:09:13;;;;;;;4.53;1.40;;;9.20;87.20;;;;;;6087539;23;20011;-77
2023/02/04 07:11:38;;;;;;;4.22;1.17;;;9.20;87.20;;;;;;6086255;23;20109;-78
2023/02/04 07:14:04;;;;;;;3.72;1.10;;;9.20;87.20;;;;;;6087576;23;20069;-76
2023/02/04 07:16:29;;;;;;;3.90;1.45;;;9.20;87.20;;;;;;6086545;23;20002;-77
2023/02/04 07:18:55;;;;;;;4.95;1.27;;;9.20;87.10;;;;;;6085952;23;20433;-78
2023/02/04 07:21:20;;;;;;;2.85;1.10;;;9.20;87.20;;;;;;6085448;23;20011;-80
2023/02/04 07:23:46;;;;;;;4.43;1.33;;;9.20;87.20;;;;;;6086522;23;20388;-77
2023/02/04 07:26:11;;;;;;;4.82;1.00;;;9.20;87.20;;;;;;6087209;23;20006;-76
2023/02/04 07:28:37;;;;;;;4.25;1.40;;;9.20;87.20;;;;;;6087384;23;20014;-78
2023/02/04 07:31:02;;;;;;;4.53;1.20;;;9.20;87.10;;;;;;6086419;23;20476;-77
2023/02/04 07:33:27;;;;;;;4.15;1.30;;;9.20;87.10;;;;;;6086612;23;20441;-77
2023/02/04 07:35:53;;;;;;;6.47;1.40;;;9.20;87.10;;;;;;6089289;23;20007;-77
2023/02/04 07:38:18;;;;;;;4.00;1.33;;;9.20;87.10;;;;;;6086380;23;20085;-77
2023/02/04 07:40:45;;;;;;;5.43;1.50;;;9.20;87.00;;;;;;6088370;23;20006;-76
2023/02/04 07:43:10;;;;;;;4.30;1.15;;;9.20;87.00;;;;;;6087746;23;20010;-77
2023/02/04 07:45:35;;;;;;;5.55;1.33;;;9.20;87.00;;;;;;6087741;23;20038;-79
2023/02/04 07:48:01;;;;;;;4.40;1.45;;;9.20;86.90;;;;;;6086547;23;20059;-77
2023/02/04 07:50:27;;;;;;;3.83;1.42;;;9.30;86.80;;;;;;6088596;23;20003;-77
2023/02/04 07:52:52;;;;;;;5.85;1.52;;;9.30;86.70;;;;;;6087798;23;20014;-79
2023/02/04 07:55:17;;;;;;;4.90;1.40;;;9.30;86.50;;;;;;6090390;23;20003;-79
2023/02/04 07:57:43;;;;;;;2.90;1.20;;;9.30;86.40;;;;;;6086556;23;20404;-75
2023/02/04 08:00:09;;;;;;;3.78;1.10;;;9.40;86.30;;;;;;6083639;23;20007;-76
2023/02/04 08:02:35;;;;;;;4.38;1.20;;;9.50;86.30;;;;;;6083328;23;20013;-76
2023/02/04 08:05:01;;;;;;;4.45;1.10;;;9.50;86.00;;;;;;6083510;23;20014;-78
2023/02/04 08:07:27;;;;;;;2.83;1.10;;;9.50;85.80;;;;;;6084803;23;20011;-75
2023/02/04 08:09:52;;;;;;;2.83;1.20;;;9.60;85.70;;;;;;6083154;23;20037;-77
2023/02/04 08:12:18;;;;;;;3.70;1.17;;;9.60;85.40;;;;;;6084786;23;20075;-77
2023/02/04 08:14:43;;;;;;;2.85;1.20;;;9.70;85.20;;;;;;6083581;23;20467;-76
2023/02/04 08:17:09;;;;;;;3.42;1.08;;;9.70;85.00;;;;;;6083584;23;20006;-75
2023/02/04 08:19:34;;;;;;;2.53;1.00;;;9.70;84.90;;;;;;6084815;23;20010;-77
2023/02/04 08:22:00;;;;;;;3.83;1.40;;;9.80;84.90;;;;;;6083315;23;20006;-76
2023/02/04 08:24:25;;;;;;;2.70;1.00;;;9.80;84.80;;;;;;6083758;23;20457;-76
2023/02/04 08:26:51;;;;;;;2.63;0.90;;;9.80;84.70;;;;;;6082956;23;20429;-76
2023/02/04 08:29:16;;;;;;;4.75;1.35;;;9.90;84.60;;;;;;6085275;23;20089;-76
2023/02/04 08:31:42;;;;;;;4.07;1.42;;;9.90;84.50;;;;;;6083697;23;20003;-75
2023/02/04 08:34:07;;;;;;;2.13;1.10;;;9.90;84.40;;;;;;6083403;23;20085;-77
2023/02/04 08:36:33;;;;;;;3.58;1.38;;;10.00;84.30;;;;;;6082346;23;20438;-77
2023/02/04 08:38:58;;;;;;;3.53;1.30;;;10.00;84.20;;;;;;6085103;23;20425;-76
2023/02/04 08:41:24;;;;;;;3.80;1.48;;;10.10;84.10;;;;;;6089095;23;20752;-76
2023/02/04 08:43:49;;;;;;;2.97;1.02;;;10.10;84.00;;;;;;6087513;23;20121;-77
2023/02/04 08:46:15;;;;;;;3.97;1.27;;;10.20;83.90;;;;;;6087382;23;20003;-78
2023/02/04 08:48:40;;;;;;;2.90;1.00;;;10.20;83.80;;;;;;6090164;23;20010;-78
2023/02/04 08:51:06;;;;;;;3.22;1.27;;;10.20;83.70;;;;;;6087994;23;20002;-76
2023/02/04 08:53:31;;;;;;;3.13;1.13;;;10.20;83.50;;;;;;6089659;23;20068;-78
2023/02/04 08:55:56;;;;;;;2.25;1.00;;;10.30;83.40;;;;;;6087027;23;20013;-77
2023/02/04 08:58:22;;;;;;;8.45;1.88;;;10.30;83.40;;;;;;6082616;23;20010;-77
2023/02/04 09:00:47;;;;;;;4.45;1.23;;;10.30;83.30;;;;;;6085363;23;20006;-77
2023/02/04 09:03:13;;;;;;;3.00;1.00;;;10.30;83.40;;;;;;6086541;23;20018;-76
2023/02/04 09:05:38;;;;;;;3.63;1.30;;;10.30;83.40;;;;;;6086145;23;20006;-77
2023/02/04 09:08:04;;;;;;;2.60;1.00;;;10.20;83.40;;;;;;6082172;23;20006;-77
2023/02/04 09:10:30;;;;;;;3.22;1.35;;;10.20;83.50;;;;;;6082253;23;20010;-77
2023/02/04 09:12:55;;;;;;;3.05;1.02;;;10.10;83.60;;;;;;6084180;23;20339;-76
2023/02/04 09:15:24;;;;;;;2.30;1.20;;;10.10;83.70;;;;;;6081957;23;20466;-78
2023/02/04 09:17:52;;;;;;;2.78;1.13;;;10.10;83.80;;;;;;6082313;23;20029;-76
2023/02/04 09:20:19;;;;;;;3.17;1.15;;;10.10;84.00;;;;;;6084198;23;19999;-77
2023/02/04 09:22:46;;;;;;;3.38;1.27;;;10.00;84.00;;;;;;6082517;23;20006;-76
2023/02/04 09:25:12;;;;;;;2.30;1.00;;;10.00;84.10;;;;;;6081596;23;20049;-77
2023/02/04 09:27:37;;;;;;;2.97;1.10;;;9.90;84.10;;;;;;6082037;23;20046;-76
2023/02/04 09:30:04;;;;;;;2.58;1.05;;;10.00;84.10;;;;;;6082726;23;20037;-77
2023/02/04 09:32:30;;;;;;;2.88;1.10;;;10.00;84.10;;;;;;6083582;23;20003;-77
2023/02/04 09:34:55;;;;;;;1.75;0.80;;;10.00;84.00;;;;;;6084144;23;20003;-76
2023/02/04 09:37:20;;;;;;;3.17;1.10;;;10.10;84.00;;;;;;6083550;23;20064;-77
2023/02/04 09:39:46;;;;;;;4.10;1.20;;;10.00;83.80;;;;;;6084302;23;20006;-78
2023/02/04 09:42:15;;;;;;;2.83;0.93;;;10.20;83.80;;;;;;6084338;23;20006;-76
2023/02/04 09:44:41;;;;;;;4.47;1.30;;;10.20;83.70;;;;;;6082062;23;20155;-76
2023/02/04 09:47:11;;;;;;;8.93;1.60;;;10.20;83.50;;;;;;6057464;23;20045;-75
2023/02/04 09:49:36;;;;;;;9.45;1.63;;;10.20;83.40;;;;;;6058243;23;20345;-75
2023/02/04 09:52:02;;;;;;;12.93;1.80;;;10.30;83.40;;;;;;6083746;23;20062;-77
2023/02/04 09:54:27;;;;;;;16.70;1.95;;;10.30;83.20;;;;;;6084640;23;20389;-76
2023/02/04 09:56:53;;;;;;;15.10;2.33;;;10.30;83.10;;;;;;6060197;23;20002;-79
2023/02/04 09:59:21;;;;;;;6.95;1.50;;;10.40;83.00;;;;;;6059908;23;20014;-78
2023/02/04 10:01:56;;;;;;;6.85;1.33;;;10.40;83.00;;;;;;6085318;23;20038;-76
2023/02/04 10:04:22;;;;;;;12.45;1.60;;;10.50;83.00;;;;;;6060490;23;20457;-76
2023/02/04 10:06:48;;;;;;;5.30;1.35;;;10.40;82.80;;;;;;6059564;23;20445;-75
2023/02/04 10:09:16;;;;;;;7.53;1.67;;;10.40;82.90;;;;;;6059935;23;20068;-76
2023/02/04 10:11:46;;;;;;;5.65;1.20;;;10.60;82.80;;;;;;6085976;23;20010;-77
2023/02/04 10:14:18;;;;;;;5.88;1.60;;;10.60;82.60;;;;;;6088777;23;20069;-82
2023/02/04 10:16:52;;;;;;;5.47;1.38;;;10.60;82.30;;;;;;6090551;23;20002;-77
2023/02/04 10:19:17;;;;;;;7.72;1.52;;;10.60;82.20;;;;;;6066410;23;20012;-77
2023/02/04 10:21:44;;;;;;;9.13;1.80;;;10.60;82.20;;;;;;6090013;23;20085;-77
2023/02/04 10:24:17;;;;;;;6.43;1.60;;;10.60;82.40;;;;;;6066265;23;19999;-77
2023/02/04 10:26:43;;;;;;;7.60;1.30;;;10.50;82.40;;;;;;6091679;23;20073;-77
2023/02/04 10:29:20;;;;;;;8.27;1.67;;;10.50;82.60;;;;;;6068653;23;20323;-77
2023/02/04 10:31:48;;;;;;;5.00;1.55;;;10.50;82.50;;;;;;6072629;23;20014;-77
2023/02/04 10:34:22;;;;;;;7.95;1.55;;;10.60;82.50;;;;;;6093538;23;19998;-77
2023/02/04 10:36:53;;;;;;;4.53;1.20;;;10.60;82.30;;;;;;6093699;23;20007;-77
2023/02/04 10:39:21;;;;;;;6.93;1.53;;;10.70;82.00;;;;;;6090487;23;20080;-77
2023/02/04 10:41:49;;;;;;;7.78;1.42;;;10.70;81.90;;;;;;6091397;23;20229;-77
2023/02/04 10:44:18;;;;;;;6.35;1.17;;;10.70;81.90;;;;;;6089958;23;19998;-77
2023/02/04 10:46:43;;;;;;;8.18;1.48;;;10.70;82.00;;;;;;6089719;23;20093;-77
2023/02/04 10:49:23;;;;;;;4.57;1.42;;;10.60;82.00;;;;;;6091833;23;20026;-76
2023/02/04 10:51:51;;;;;;;5.93;1.50;;;10.60;82.50;;;;;;6090068;23;20009;-77
2023/02/04 10:54:31;;;;;;;3.53;1.23;;;10.50;82.00;;;;;;6091277;23;20387;-77
2023/02/04 10:57:15;;;;;;;6.20;1.55;;;10.60;82.10;;;;;;6094953;23;20429;-77
2023/02/04 10:59:42;;;;;;;4.40;1.05;;;10.60;82.20;;;;;;6099523;23;20002;-76
2023/02/04 11:02:42;;;;;;;4.90;1.42;;;10.60;82.20;;;;;;6092040;23;20528;-77
2023/02/04 11:05:21;;;;;;;4.30;1.50;;;10.60;82.20;;;;;;6092102;23;20059;-76
2023/02/04 11:07:48;;;;;;;4.68;1.40;;;10.60;82.20;;;;;;6092604;23;20100;-77
2023/02/04 11:10:20;;;;;;;3.75;1.20;;;10.60;82.10;;;;;;6092863;23;20006;-77
2023/02/04 11:12:51;;;;;;;;;;;10.60;82.10;;;;;;6091174;23;20018;-77
2023/02/04 11:15:46;;;;;;;5.43;1.52;;;10.60;82.10;;;;;;6092138;23;19901;-77
2023/02/04 11:18:21;;;;;;;4.32;1.67;;;10.60;82.10;;;;;;6090753;23;20088;-77
2023/02/04 11:20:48;;;;;;;5.18;1.20;;;10.60;82.10;;;;;;6092252;23;19999;-77
2023/02/04 11:23:26;;;;;;;4.85;1.33;;;10.60;82.10;;;;;;6090785;23;20029;-76
2023/02/04 11:26:19;;;;;;;3.65;1.10;;;10.60;82.00;;;;;;6090691;23;20021;-77
2023/02/04 11:28:44;;;;;;;4.40;1.30;;;10.70;82.10;;;;;;6092511;23;20524;-77
2023/02/04 11:31:19;;;;;;;3.00;1.00;;;10.70;82.00;;;;;;6090910;23;20034;-77
2023/02/04 11:33:44;;;;;;;4.78;1.20;;;10.70;82.00;;;;;;6092286;23;20026;-77
2023/02/04 11:36:13;;;;;;;2.97;1.13;;;10.70;82.00;;;;;;6091872;23;20005;-77
2023/02/04 11:38:47;;;;;;;2.42;1.20;;;10.70;81.90;;;;;;6090788;23;20007;-77
2023/02/04 11:41:28;;;;;;;5.05;1.38;;;10.70;81.90;;;;;;6092373;23;20032;-77
2023/02/04 11:43:56;;;;;;;2.97;1.23;;;10.70;81.90;;;;;;6066605;23;20006;-77
2023/02/04 11:46:22;;;;;;;2.75;1.00;;;10.80;81.90;;;;;;6091806;23;20441;-77
2023/02/04 11:48:52;;;;;;;4.35;1.20;;;10.80;81.90;;;;;;6092233;23;20010;-77
2023/02/04 11:51:22;;;;;;;3.05;1.13;;;10.80;81.80;;;;;;6090752;23;20002;-77
2023/02/04 11:53:51;;;;;;;2.40;1.17;;;10.80;81.70;;;;;;6092144;23;20014;-77
2023/02/04 11:56:19;;;;;;;4.15;1.50;;;10.80;81.70;;;;;;6091977;23;20005;-77
2023/02/04 11:58:45;;;;;;;3.63;1.27;;;10.70;81.50;;;;;;6067298;23;20048;-77
2023/02/04 12:01:17;;;;;;;3.50;1.27;;;10.70;81.70;;;;;;6092575;23;20436;-77
2023/02/04 12:03:55;;;;;;;3.90;1.15;;;10.70;81.90;;;;;;6092379;23;20013;-77
2023/02/04 12:06:22;;;;;;;2.50;1.05;;;10.70;81.80;;;;;;6066394;23;20092;-77
2023/02/04 12:08:47;;;;;;;4.15;1.10;;;10.80;81.60;;;;;;6091907;23;20013;-77
2023/02/04 12:11:26;;;;;;;2.58;1.02;;;10.80;81.50;;;;;;6092667;23;20348;-77
2023/02/04 12:13:56;;;;;;;3.13;1.20;;;10.80;81.40;;;;;;6090165;23;20017;-77
2023/02/04 12:16:22;;;;;;;1.83;1.08;;;10.90;81.40;;;;;;6091882;23;20342;-77
2023/02/04 12:18:48;;;;;;;3.20;1.10;;;10.90;81.40;;;;;;6090465;23;20034;-77
2023/02/04 12:21:14;;;;;;;3.97;1.17;;;10.90;81.30;;;;;;6092092;23;20421;-77
2023/02/04 12:23:43;;;;;;;2.83;1.20;;;10.90;81.20;;;;;;6072660;23;20007;-77
2023/02/04 12:26:08;;;;;;;3.05;1.17;;;10.90;81.10;;;;;;6101690;23;20003;-78
2023/02/04 12:28:34;;;;;;;2.70;1.20;;;10.90;81.00;;;;;;6081239;23;20062;-78
2023/02/04 12:30:59;;;;;;;4.25;1.15;;;10.90;81.10;;;;;;6092718;23;20060;-77
2023/02/04 12:33:25;;;;;;;2.28;1.00;;;10.90;81.00;;;;;;6090506;23;20060;-77
2023/02/04 12:35:51;;;;;;;2.60;1.10;;;10.90;81.00;;;;;;6090191;23;19999;-77
2023/02/04 12:38:16;;;;;;;2.33;1.00;;;10.90;81.10;;;;;;6088066;23;20384;-77
2023/02/04 12:40:42;;;;;;;2.75;1.02;;;10.90;81.00;;;;;;6090617;23;20380;-77
2023/02/04 12:43:07;;;;;;;3.28;1.38;;;10.90;81.00;;;;;;6092957;23;20045;-77
2023/02/04 12:45:33;;;;;;;2.53;1.00;;;10.90;81.10;;;;;;6103244;23;20314;-78
2023/02/04 12:47:59;;;;;;;2.20;1.10;;;10.90;81.20;;;;;;6093966;23;20314;-77
2023/02/04 12:50:25;;;;;;;1.67;1.02;;;10.90;81.20;;;;;;6092036;23;20014;-77